Time;durP1;ratioP1;P1;durP2;ratioP2;P2;SDS_P1;SDS_P2;PMS_P1;PMS_P2;Temp;Humidity;BMP_temperature;BMP_pressure;BME280_temperature;BME280_humidity;BME280_pressure;Samples;Min_cycle;Max_cycle;Signal;HPM_P1;HPM_P2
2021/11/14 00:00:30;;;;;;;8.15;6.15;;;;;;;6.08;100.00;98727.16;4986901;28;20034;-76
2021/11/14 00:02:57;;;;;;;3.95;3.53;;;;;;;6.10;100.00;98725.44;4994659;28;20387;-76
2021/11/14 00:05:23;;;;;;;5.47;4.97;;;;;;;6.13;100.00;98723.69;4994153;28;20034;-76
2021/11/14 00:07:48;;;;;;;7.20;5.90;;;;;;;6.13;100.00;98723.69;4994361;28;20034;-79
2021/11/14 00:10:14;;;;;;;7.53;5.65;;;;;;;6.09;100.00;98723.72;4993998;28;20383;-79
2021/11/14 00:12:40;;;;;;;7.95;4.68;;;;;;;6.09;100.00;98719.44;4993889;28;20077;-79
2021/11/14 00:15:07;;;;;;;6.57;4.22;;;;;;;6.06;100.00;98718.59;4993795;28;20457;-79
2021/11/14 00:17:33;;;;;;;8.88;4.30;;;;;;;6.08;100.00;98727.16;4989042;28;20084;-79
2021/11/14 00:19:59;;;;;;;6.50;4.18;;;;;;;6.06;100.00;98721.16;4993769;28;20030;-79
2021/11/14 00:22:25;;;;;;;5.15;4.07;;;;;;;6.11;100.00;98722.00;4993869;28;20033;-79
2021/11/14 00:24:50;;;;;;;3.53;2.65;;;;;;;6.09;100.00;98723.72;4993612;28;20030;-79
2021/11/14 00:27:16;;;;;;;4.80;4.15;;;;;;;6.12;100.00;98723.72;4993712;28;20157;-79
2021/11/14 00:29:41;;;;;;;6.47;5.65;;;;;;;6.13;100.00;98721.13;4986227;28;20037;-79
2021/11/14 00:32:07;;;;;;;5.68;4.10;;;;;;;6.12;100.00;98724.56;4993479;28;20040;-79
2021/11/14 00:34:34;;;;;;;4.80;4.40;;;;;;;6.12;100.00;98719.44;4992041;28;20034;-79
2021/11/14 00:37:00;;;;;;;3.97;3.63;;;;;;;6.12;100.00;98722.00;4993491;28;20031;-79
2021/11/14 00:39:25;;;;;;;4.68;4.28;;;;;;;6.11;100.00;98716.88;4993240;28;20395;-79
2021/11/14 00:41:51;;;;;;;6.82;4.93;;;;;;;6.16;100.00;98725.44;4993576;28;20026;-79
2021/11/14 00:44:16;;;;;;;3.50;3.10;;;;;;;6.15;100.00;98721.16;4993317;28;20535;-79
2021/11/14 00:46:42;;;;;;;6.20;4.45;;;;;;;6.13;100.00;98720.28;4989058;28;20038;-79
2021/11/14 00:49:08;;;;;;;4.10;3.80;;;;;;;6.16;100.00;98733.16;4992990;28;20105;-79
2021/11/14 00:51:33;;;;;;;4.10;3.70;;;;;;;6.16;100.00;98722.84;4993275;28;20084;-78
2021/11/14 00:54:01;;;;;;;5.10;2.90;;;;;;;6.17;100.00;98722.00;4993343;28;20207;-79
2021/11/14 00:56:26;;;;;;;7.10;5.40;;;;;;;6.20;100.00;98734.00;4993264;28;20520;-79
2021/11/14 00:58:52;;;;;;;8.18;3.65;;;;;;;6.16;100.00;98726.28;4991833;28;20117;-79
2021/11/14 08:02:18;;;;;;;5.13;4.35;;;;;;;6.16;100.00;98962.09;5136969;23;20503;-67
2021/11/14 08:04:44;;;;;;;4.70;3.88;;;;;;;6.24;100.00;98964.66;4994398;28;20046;-68
2021/11/14 08:07:10;;;;;;;5.50;4.18;;;;;;;6.37;100.00;98962.13;4994607;28;20022;-68
2021/11/14 08:09:36;;;;;;;5.05;4.45;;;;;;;6.50;100.00;98951.88;4992779;28;20372;-68
2021/11/14 08:12:02;;;;;;;4.30;3.38;;;;;;;6.57;100.00;98949.28;4994160;28;20041;-68
2021/11/14 08:14:27;;;;;;;2.92;2.50;;;;;;;6.89;100.00;98951.88;4994542;28;20037;-74
2021/11/14 08:16:53;;;;;;;3.65;3.08;;;;;;;7.05;100.00;98957.00;4994055;28;20096;-73
2021/11/14 08:19:19;;;;;;;2.35;2.25;;;;;;;7.19;100.00;98944.97;4994085;28;20027;-73
2021/11/14 08:21:44;;;;;;;7.47;3.88;;;;;;;7.13;100.00;98945.84;4993967;28;20026;-73
2021/11/14 08:24:09;;;;;;;4.55;4.15;;;;;;;7.35;100.00;98946.66;4993944;28;20050;-73
2021/11/14 08:26:35;;;;;;;7.15;3.53;;;;;;;7.13;100.00;98950.13;4993744;28;20142;-73
2021/11/14 08:29:00;;;;;;;5.07;3.63;;;;;;;6.94;100.00;98955.31;4990941;28;20021;-74
2021/11/14 08:31:27;;;;;;;4.28;3.88;;;;;;;6.87;100.00;98963.06;4989009;28;20037;-74
2021/11/14 08:33:52;;;;;;;6.63;4.28;;;;;;;6.83;100.00;98971.63;4993685;28;20034;-74
2021/11/14 08:36:18;;;;;;;5.03;4.60;;;;;;;6.85;100.00;98960.44;4993798;28;20431;-74
2021/11/14 08:38:45;;;;;;;3.97;3.58;;;;;;;6.93;100.00;98963.91;4993575;28;20052;-73
2021/11/14 08:41:11;;;;;;;3.53;3.22;;;;;;;7.03;100.00;98969.03;4993530;28;20411;-73
2021/11/14 08:43:38;;;;;;;3.50;3.25;;;;;;;7.19;100.00;98963.84;4993655;28;20026;-69
2021/11/14 08:46:04;;;;;;;5.03;4.30;;;;;;;7.42;100.00;98952.66;4993778;28;20026;-68
2021/11/14 08:48:30;;;;;;;4.78;4.38;;;;;;;7.44;100.00;98962.09;4993584;28;20026;-69
2021/11/14 08:50:55;;;;;;;3.83;3.10;;;;;;;7.63;100.00;98959.47;4993223;28;20053;-69
2021/11/14 08:53:21;;;;;;;4.50;3.17;;;;;;;7.86;100.00;98965.41;4993447;28;20023;-69
2021/11/14 08:55:46;;;;;;;3.05;2.75;;;;;;;8.24;100.00;98966.94;4993319;28;20034;-69
2021/11/14 08:58:12;;;;;;;3.38;3.15;;;;;;;8.31;100.00;98963.44;4992907;28;20109;-69
2021/11/14 09:00:37;;;;;;;10.43;4.57;;;;;;;8.53;100.00;98969.38;4985426;28;20042;-68
2021/11/14 09:03:03;;;;;;;6.30;3.95;;;;;;;8.69;100.00;98963.22;4993237;28;20031;-77
2021/11/14 09:05:30;;;;;;;4.95;3.67;;;;;;;8.76;100.00;98971.81;4993262;28;20029;-76
2021/11/14 09:07:56;;;;;;;3.17;2.88;;;;;;;8.61;100.00;98972.78;4993188;28;20023;-68
2021/11/14 09:10:23;;;;;;;8.98;3.17;;;;;;;8.76;100.00;98966.63;4992846;28;20052;-68
2021/11/14 09:12:50;;;;;;;9.18;3.90;;;;;;;8.73;100.00;98971.81;4993076;28;20030;-68
2021/11/14 09:15:17;;;;;;;3.33;2.95;;;;;;;8.95;99.85;98973.38;4992956;28;20514;-68
2021/11/14 09:17:42;;;;;;;3.75;3.40;;;;;;;9.28;99.19;98976.50;4992898;28;20030;-68
2021/11/14 09:20:08;;;;;;;6.28;3.08;;;;;;;9.46;97.14;98971.16;4992872;28;20118;-68
2021/11/14 09:22:35;;;;;;;3.70;2.75;;;;;;;9.13;96.66;98986.97;4992888;28;20491;-68
2021/11/14 09:25:00;;;;;;;7.22;3.20;;;;;;;8.92;97.92;98991.47;4992914;28;20026;-68
2021/11/14 09:27:26;;;;;;;3.72;3.40;;;;;;;8.85;99.67;98997.56;4992815;28;20101;-68
2021/11/14 09:29:51;;;;;;;4.30;2.92;;;;;;;8.89;100.00;98998.38;4985305;28;20031;-68
2021/11/14 09:32:16;;;;;;;7.82;3.65;;;;;;;8.69;100.00;99001.09;4992587;28;20069;-69
2021/11/14 09:34:42;;;;;;;4.88;3.75;;;;;;;8.59;98.89;99007.22;4992848;28;20030;-69
2021/11/14 09:37:07;;;;;;;7.20;3.45;;;;;;;8.66;98.25;99006.31;4992710;28;20399;-69
2021/11/14 09:39:33;;;;;;;4.55;3.17;;;;;;;8.52;97.83;99002.97;4992619;28;20034;-69
2021/11/14 09:42:00;;;;;;;2.65;2.45;;;;;;;8.67;99.44;99006.28;4992550;28;20077;-69
2021/11/14 09:44:26;;;;;;;2.72;2.03;;;;;;;8.72;98.55;99001.09;4992251;28;20058;-68
2021/11/14 09:46:57;;;;;;;3.47;3.10;;;;;;;8.72;98.08;98998.50;4992742;28;20057;-68
2021/11/14 09:49:25;;;;;;;5.20;2.90;;;;;;;8.85;97.08;98997.56;4992511;28;20026;-68
2021/11/14 09:51:52;;;;;;;6.85;3.90;;;;;;;9.05;97.56;99001.72;4992487;28;20404;-68
2021/11/14 09:54:18;;;;;;;8.27;3.67;;;;;;;9.17;96.23;99005.03;4992650;28;20026;-73
2021/11/14 09:56:44;;;;;;;6.78;3.22;;;;;;;9.29;94.09;98998.91;4992125;28;20022;-72
2021/11/14 09:59:09;;;;;;;7.32;3.63;;;;;;;9.07;95.73;99007.72;4988698;28;20038;-71
2021/11/14 10:01:36;;;;;;;5.38;3.53;;;;;;;8.95;93.82;99000.94;4988860;28;20400;-72
2021/11/14 10:04:03;;;;;;;4.20;3.00;;;;;;;8.94;95.15;99012.97;4992478;28;20042;-71
2021/11/14 10:06:28;;;;;;;5.28;4.13;;;;;;;9.11;97.04;99014.59;4992472;28;20076;-73
2021/11/14 10:08:54;;;;;;;7.78;3.60;;;;;;;9.01;94.87;99024.13;4992297;28;20109;-73
2021/11/14 10:11:34;;;;;;;6.18;4.45;;;;;;;9.02;96.01;99018.09;4992333;28;20463;-71
2021/11/14 10:13:59;;;;;;;;;;;;;;;9.39;95.27;99015.22;4992771;28;20102;-71
2021/11/14 10:16:28;;;;;;;3.17;2.38;;;;;;;9.50;93.81;99013.38;4992452;28;19994;-69
2021/11/14 10:19:03;;;;;;;7.18;3.83;;;;;;;9.34;93.65;99015.25;4992192;28;20027;-69
2021/11/14 10:21:31;;;;;;;7.78;4.07;;;;;;;9.49;92.73;99009.91;4992271;28;20081;-69
2021/11/14 10:23:58;;;;;;;6.57;3.42;;;;;;;9.47;91.15;99014.25;4992206;28;20022;-67
2021/11/14 10:26:26;;;;;;;3.47;3.17;;;;;;;9.79;92.05;99015.66;4992355;28;20487;-67
2021/11/14 10:28:52;;;;;;;9.32;4.07;;;;;;;9.92;91.44;99008.63;4990550;28;20031;-67
2021/11/14 10:31:22;;;;;;;6.03;4.00;;;;;;;9.86;91.32;99022.44;4986464;28;20360;-67
2021/11/14 10:33:50;;;;;;;3.90;3.60;;;;;;;10.01;91.56;99021.44;4992006;28;20026;-67
2021/11/14 10:36:15;;;;;;;8.57;3.67;;;;;;;9.98;92.14;99022.31;4992160;28;20117;-67
2021/11/14 10:38:41;;;;;;;8.82;3.55;;;;;;;9.63;94.25;99019.28;4991996;28;20106;-66
2021/11/14 10:41:10;;;;;;;6.40;3.72;;;;;;;9.48;94.99;99018.56;4991999;28;20468;-67
2021/11/14 10:43:40;;;;;;;5.15;4.25;;;;;;;9.38;96.04;99023.81;4992119;28;20506;-66
2021/11/14 10:46:17;;;;;;;7.65;3.15;;;;;;;9.22;95.89;99017.94;4992252;28;20109;-66
2021/11/14 10:48:43;;;;;;;6.50;4.13;;;;;;;9.21;96.87;99021.38;4991953;28;20033;-68
2021/11/14 10:51:11;;;;;;;3.58;2.72;;;;;;;9.40;96.48;99016.91;4991793;28;20030;-68
2021/11/14 10:53:37;;;;;;;8.88;2.42;;;;;;;9.48;97.25;99018.56;4992321;28;20112;-68
2021/11/14 10:56:07;;;;;;;6.00;3.97;;;;;;;9.64;97.27;99018.41;4992246;28;20033;-69
2021/11/14 10:58:33;;;;;;;;;;;;;;;9.62;97.29;99017.53;4995729;28;20033;-68
2021/11/14 11:01:05;;;;;;;6.20;3.80;;;;;;;9.72;96.77;99014.88;4987743;28;19918;-68
2021/11/14 11:03:40;;;;;;;3.88;2.88;;;;;;;9.56;92.80;99012.44;4995374;28;20570;-68
2021/11/14 11:06:08;;;;;;;3.58;2.92;;;;;;;9.86;93.98;99016.41;4995399;28;20038;-77
2021/11/14 11:08:35;;;;;;;8.30;3.50;;;;;;;9.78;90.78;99011.34;4995485;28;20077;-77
2021/11/14 11:11:04;;;;;;;3.95;2.65;;;;;;;9.92;90.82;99008.63;4995019;28;20034;-77
2021/11/14 11:13:41;;;;;;;3.70;2.40;;;;;;;10.08;90.70;99006.69;4995372;28;20101;-77
2021/11/14 11:16:18;;;;;;;5.53;3.90;;;;;;;10.12;89.29;99009.22;4995215;28;20117;-77
2021/11/14 11:18:44;;;;;;;6.03;3.47;;;;;;;10.01;88.02;99006.78;4995341;28;20018;-68
2021/11/14 11:21:14;;;;;;;7.05;3.80;;;;;;;10.21;88.88;99003.06;4994847;28;20033;-68
2021/11/14 11:23:45;;;;;;;3.72;2.72;;;;;;;10.66;87.37;99005.94;4995245;28;20031;-68
2021/11/14 11:26:13;;;;;;;3.25;2.92;;;;;;;10.61;87.56;99012.91;4995064;28;20032;-68
2021/11/14 11:28:43;;;;;;;5.63;3.22;;;;;;;10.70;87.69;99007.59;4994606;28;20594;-68
2021/11/14 11:31:17;;;;;;;4.00;2.50;;;;;;;10.73;86.33;99013.63;4964877;28;20018;-69
2021/11/14 11:33:54;;;;;;;4.40;3.08;;;;;;;10.17;87.10;99015.19;4994919;28;20066;-68
2021/11/14 11:36:20;;;;;;;2.92;2.55;;;;;;;10.28;87.87;99015.94;4994909;28;20030;-69
2021/11/14 11:38:47;;;;;;;4.45;3.10;;;;;;;10.14;90.09;99014.38;4994689;28;20018;-68
2021/11/14 11:41:15;;;;;;;4.68;2.42;;;;;;;9.98;86.89;99016.28;4994657;28;20161;-69
2021/11/14 11:43:41;;;;;;;6.60;3.33;;;;;;;10.02;89.58;99013.66;4994840;28;20022;-73
2021/11/14 11:46:18;;;;;;;3.70;3.30;;;;;;;10.19;88.57;99015.16;4994764;28;20030;-74
2021/11/14 11:48:50;;;;;;;3.65;2.72;;;;;;;10.31;86.10;99011.63;4994726;28;20225;-69
2021/11/14 11:51:27;;;;;;;5.72;4.00;;;;;;;10.29;87.98;99016.78;4994408;28;20033;-73
2021/11/14 11:54:10;;;;;;;2.55;2.33;;;;;;;9.95;90.26;99024.09;4994777;28;20602;-75
2021/11/14 11:56:43;;;;;;;4.28;3.10;;;;;;;10.03;89.27;99019.69;4994314;28;20496;-75
2021/11/14 11:59:10;;;;;;;2.58;2.38;;;;;;;9.89;89.93;99017.25;4989271;28;20019;-75
2021/11/14 12:01:46;;;;;;;3.90;2.78;;;;;;;9.87;89.87;99011.25;4990911;28;20095;-74
2021/11/14 12:04:21;;;;;;;2.78;2.53;;;;;;;10.11;88.15;99006.66;4994623;28;20034;-80
2021/11/14 12:07:01;;;;;;;3.80;2.58;;;;;;;10.23;88.73;99009.09;4994372;28;20392;-79
2021/11/14 12:09:51;;;;;;;9.02;3.53;;;;;;;10.33;87.97;99007.25;4994242;28;20105;-79
2021/11/14 12:12:32;;;;;;;3.95;3.13;;;;;;;10.36;85.71;99007.22;4994161;28;20026;-79
2021/11/14 12:15:15;;;;;;;7.38;3.20;;;;;;;10.39;88.65;98997.66;4992946;28;20030;-74
2021/11/14 12:17:53;;;;;;;5.60;3.00;;;;;;;10.22;85.08;98997.00;4994148;28;20026;-74
2021/11/14 12:20:42;;;;;;;4.57;2.95;;;;;;;10.14;85.47;98996.25;4993811;28;20030;-71
2021/11/14 12:23:27;;;;;;;9.25;3.75;;;;;;;10.17;87.03;98996.22;4993892;28;20030;-71
2021/11/14 12:25:55;;;;;;;6.72;3.17;;;;;;;10.27;87.55;98992.66;4993967;28;20038;-71
2021/11/14 12:28:26;;;;;;;5.60;4.57;;;;;;;10.01;87.12;98996.41;4993404;28;20029;-73
2021/11/14 12:30:53;;;;;;;4.55;2.55;;;;;;;9.98;87.20;98991.25;4978058;28;20479;-75
2021/11/14 12:33:24;;;;;;;4.65;2.42;;;;;;;10.31;87.85;98994.34;4993666;28;20431;-74
2021/11/14 12:35:53;;;;;;;2.70;2.50;;;;;;;10.25;86.78;98991.81;4993865;28;20046;-71
2021/11/14 12:38:25;;;;;;;8.07;3.03;;;;;;;10.27;85.79;98992.66;4993644;28;20021;-74
2021/11/14 12:41:17;;;;;;;8.70;2.50;;;;;;;10.38;86.34;98998.53;4993488;28;20058;-75
2021/11/14 12:43:49;;;;;;;5.10;2.67;;;;;;;10.75;85.70;98991.09;4993646;28;20502;-75
2021/11/14 12:46:23;;;;;;;3.65;2.58;;;;;;;10.52;85.51;98999.22;4993610;28;20037;-75
2021/11/14 12:48:49;;;;;;;4.88;3.35;;;;;;;10.31;85.07;98999.53;4993456;28;20415;-75
2021/11/14 12:51:28;;;;;;;3.55;2.03;;;;;;;10.25;87.16;98999.56;4993305;28;20033;-74
2021/11/14 12:54:10;;;;;;;2.85;2.22;;;;;;;10.15;86.35;99003.13;4993720;28;20035;-74
2021/11/14 12:56:39;;;;;;;6.38;3.83;;;;;;;10.15;86.14;99003.13;4993092;28;20488;-74
2021/11/14 12:59:16;;;;;;;5.23;2.40;;;;;;;10.05;86.89;99003.25;4989852;28;20033;-75
2021/11/14 13:01:42;;;;;;;5.80;3.08;;;;;;;10.14;87.66;99006.59;4990475;28;20034;-74
2021/11/14 13:04:07;;;;;;;5.05;4.38;;;;;;;10.25;87.24;99004.75;4993192;28;20503;-75
2021/11/14 13:06:36;;;;;;;3.22;2.25;;;;;;;10.39;87.13;99008.03;4993183;28;20026;-75
2021/11/14 13:09:10;;;;;;;1.83;1.73;;;;;;;10.48;87.25;99007.91;4992983;28;20029;-75
2021/11/14 13:11:38;;;;;;;4.78;2.95;;;;;;;10.63;86.39;99008.56;4991710;28;20554;-75
2021/11/14 13:14:09;;;;;;;6.00;2.30;;;;;;;10.62;86.40;99015.47;4993034;28;20057;-75
2021/11/14 13:16:36;;;;;;;4.88;2.80;;;;;;;10.48;85.91;99017.41;4992970;28;20022;-75
2021/11/14 13:19:05;;;;;;;3.20;2.38;;;;;;;10.46;86.39;99017.44;4991979;28;20390;-75
2021/11/14 13:21:35;;;;;;;3.13;2.83;;;;;;;10.24;87.82;99019.44;4992771;28;20046;-75
2021/11/14 13:24:07;;;;;;;5.70;2.58;;;;;;;10.32;87.33;99021.09;4992938;28;20041;-75
2021/11/14 13:26:56;;;;;;;5.90;3.13;;;;;;;10.28;86.04;99020.28;4992767;28;20511;-75
2021/11/14 13:29:31;;;;;;;1.48;1.30;;;;;;;10.16;87.29;99015.22;4976798;28;20034;-75
2021/11/14 13:32:06;;;;;;;4.80;2.80;;;;;;;10.18;87.39;99018.63;4992198;28;20014;-75
2021/11/14 13:34:35;;;;;;;2.95;2.53;;;;;;;10.28;87.48;99022.84;4991677;28;20169;-74
2021/11/14 13:37:09;;;;;;;2.53;1.80;;;;;;;10.13;88.32;99017.84;4992627;28;20049;-74
2021/11/14 13:39:34;;;;;;;1.80;1.70;;;;;;;10.18;87.60;99023.81;4992531;28;20145;-74
2021/11/14 13:42:21;;;;;;;3.88;2.78;;;;;;;10.08;88.17;99017.03;4992430;28;20054;-74
2021/11/14 13:44:54;;;;;;;4.40;2.22;;;;;;;10.11;88.41;99022.19;4992838;28;20446;-74
2021/11/14 13:47:40;;;;;;;3.63;2.45;;;;;;;10.10;88.08;99016.13;4992571;28;20101;-75
2021/11/14 13:50:12;;;;;;;3.60;2.08;;;;;;;10.08;88.82;99017.91;4992375;28;20214;-75
2021/11/14 13:52:38;;;;;;;3.45;2.25;;;;;;;10.21;88.81;99018.63;4992414;28;20395;-75
2021/11/14 13:55:09;;;;;;;1.92;1.50;;;;;;;10.00;88.71;99012.78;4992517;28;20510;-75
2021/11/14 13:57:36;;;;;;;7.45;3.28;;;;;;;10.03;88.82;99007.59;4992103;28;20022;-75
2021/11/14 14:00:16;;;;;;;3.03;2.45;;;;;;;9.99;88.03;99013.69;4969584;28;20037;-75
2021/11/14 14:02:42;;;;;;;2.75;2.42;;;;;;;10.03;88.70;99005.00;4992215;28;20458;-75
2021/11/14 14:05:10;;;;;;;4.00;3.10;;;;;;;9.96;90.00;99003.38;4992453;28;20034;-75
2021/11/14 14:07:38;;;;;;;2.42;2.05;;;;;;;10.09;88.58;99003.22;4992356;28;20050;-75
2021/11/14 14:10:06;;;;;;;3.88;2.00;;;;;;;10.25;87.17;99015.13;4992251;28;20387;-75
2021/11/14 14:12:34;;;;;;;3.65;2.78;;;;;;;10.16;87.00;99010.03;4992262;28;20081;-75
2021/11/14 14:15:04;;;;;;;3.80;2.50;;;;;;;10.18;86.37;99018.63;4992608;23;20031;-75
2021/11/14 14:17:30;;;;;;;4.07;1.73;;;;;;;10.25;86.09;99020.28;4973031;28;20062;-75
2021/11/14 14:19:56;;;;;;;3.42;2.67;;;;;;;10.19;87.02;99025.53;4972829;28;20491;-75
2021/11/14 14:22:45;;;;;;;3.25;2.50;;;;;;;10.27;86.45;99026.31;4972964;28;20106;-75
2021/11/14 14:25:23;;;;;;;5.50;3.30;;;;;;;10.09;88.37;99029.97;4972857;28;20030;-75
2021/11/14 14:27:57;;;;;;;4.47;3.35;;;;;;;9.96;86.81;99024.09;4981144;28;20057;-75
2021/11/14 14:30:23;;;;;;;5.80;3.40;;;;;;;9.93;87.14;99024.13;4985562;28;20494;-75
2021/11/14 14:32:58;;;;;;;2.10;1.92;;;;;;;10.02;88.24;99018.84;4995922;28;20026;-75
2021/11/14 14:35:29;;;;;;;4.50;2.15;;;;;;;10.00;90.47;99017.97;4996023;28;20034;-75
2021/11/14 14:38:03;;;;;;;2.08;1.67;;;;;;;10.04;88.76;99021.41;4995898;28;20026;-75
2021/11/14 14:40:40;;;;;;;3.00;1.77;;;;;;;9.90;89.99;99024.13;4995940;28;20368;-75
2021/11/14 14:43:15;;;;;;;2.78;2.03;;;;;;;9.74;89.05;99026.03;4995859;28;20026;-79
2021/11/14 14:45:42;;;;;;;2.28;2.08;;;;;;;9.67;90.25;99021.81;4995708;28;20026;-79
2021/11/14 14:48:10;;;;;;;3.25;2.95;;;;;;;9.65;91.75;99020.09;4995798;28;20022;-79
2021/11/14 14:50:37;;;;;;;2.78;2.53;;;;;;;9.86;91.23;99017.28;4995481;28;20030;-78
2021/11/14 14:53:05;;;;;;;1.83;1.67;;;;;;;9.80;91.18;99022.53;4995742;28;20495;-78
2021/11/14 14:55:30;;;;;;;3.63;3.33;;;;;;;9.79;90.05;99034.63;4995799;28;20037;-78
2021/11/14 14:58:07;;;;;;;2.08;1.88;;;;;;;9.81;89.29;99029.41;4995228;28;20018;-77
2021/11/14 15:00:37;;;;;;;1.20;1.20;;;;;;;9.79;89.88;99033.75;4988028;28;20483;-77
2021/11/14 15:03:02;;;;;;;1.70;1.60;;;;;;;9.78;90.32;99040.66;4980109;28;20030;-76
2021/11/14 15:05:28;;;;;;;2.95;2.72;;;;;;;9.82;89.93;99031.16;4995583;28;20033;-73
2021/11/14 15:07:58;;;;;;;4.30;1.48;;;;;;;9.72;90.19;99034.72;4995501;28;20026;-74
2021/11/14 15:10:28;;;;;;;2.25;2.08;;;;;;;9.75;90.44;99045.00;4995292;28;20030;-77
2021/11/14 15:12:55;;;;;;;;;;;;;;;9.69;91.04;99050.25;4995842;28;20037;-76
2021/11/14 15:15:24;;;;;;;3.35;2.15;;;;;;;9.71;91.89;99056.25;4994947;28;19914;-76
2021/11/14 15:18:14;;;;;;;2.42;2.28;;;;;;;9.73;90.60;99054.53;4995229;28;20388;-76
2021/11/14 15:20:40;;;;;;;5.50;1.95;;;;;;;9.70;90.14;99054.56;4995478;28;20042;-76
2021/11/14 15:23:16;;;;;;;3.47;2.20;;;;;;;9.66;90.20;99052.88;4995243;28;20030;-76
2021/11/14 15:25:43;;;;;;;1.35;1.25;;;;;;;9.59;90.98;99061.56;4995026;28;20033;-76
2021/11/14 15:28:10;;;;;;;4.13;1.77;;;;;;;9.63;90.55;99055.50;4994688;28;20025;-76
2021/11/14 15:30:51;;;;;;;1.75;1.38;;;;;;;9.61;90.90;99062.41;4987416;28;20030;-76
2021/11/14 15:33:20;;;;;;;4.20;1.63;;;;;;;9.54;91.25;99071.97;4994982;28;20033;-76
2021/11/14 15:35:46;;;;;;;2.50;2.30;;;;;;;9.55;90.58;99072.81;4994842;28;20042;-76
2021/11/14 15:38:12;;;;;;;9.73;1.48;;;;;;;9.60;89.07;99076.22;4995281;28;20116;-79
2021/11/14 15:40:39;;;;;;;1.67;1.42;;;;;;;9.59;89.56;99084.84;4994831;28;20468;-78
2021/11/14 15:43:07;;;;;;;1.50;1.40;;;;;;;9.57;89.76;99091.75;4994091;28;20157;-75
2021/11/14 15:45:34;;;;;;;1.17;1.17;;;;;;;9.52;89.08;99095.25;4994699;28;20475;-77
2021/11/14 15:48:07;;;;;;;1.77;1.38;;;;;;;9.47;89.25;99096.16;4994650;28;20026;-77
2021/11/14 15:50:34;;;;;;;2.20;1.50;;;;;;;9.47;89.50;99097.00;4994595;28;20104;-77
2021/11/14 15:53:00;;;;;;;2.95;2.17;;;;;;;9.44;89.07;99116.88;4994530;28;20541;-77
2021/11/14 15:55:30;;;;;;;2.08;1.83;;;;;;;9.41;89.65;99117.75;4994517;28;20069;-78
2021/11/14 15:57:57;;;;;;;3.67;1.80;;;;;;;9.39;89.83;99116.91;4994025;28;20030;-78
2021/11/14 16:00:25;;;;;;;2.30;1.67;;;;;;;9.43;89.96;99110.84;4987042;28;20036;-72
2021/11/14 16:02:51;;;;;;;10.23;2.72;;;;;;;9.39;89.68;99116.91;4994315;28;20026;-72
2021/11/14 16:05:16;;;;;;;3.55;2.72;;;;;;;9.36;90.21;99116.94;4994162;28;20037;-72
2021/11/14 16:07:42;;;;;;;2.78;1.58;;;;;;;9.37;89.82;99122.97;4994326;28;20213;-72
2021/11/14 16:10:10;;;;;;;2.22;1.70;;;;;;;9.40;90.45;99126.38;4994227;28;20026;-72
2021/11/14 16:12:37;;;;;;;2.13;2.03;;;;;;;9.34;89.19;99134.19;4994218;28;20026;-73
2021/11/14 16:15:05;;;;;;;3.80;1.90;;;;;;;9.34;89.69;99126.44;4994095;28;20034;-73
2021/11/14 16:17:35;;;;;;;1.73;1.63;;;;;;;9.51;88.92;99124.56;4994124;28;20106;-72
2021/11/14 16:20:01;;;;;;;2.92;1.23;;;;;;;9.38;89.11;99128.13;4993924;28;20018;-78
2021/11/14 16:22:26;;;;;;;2.38;2.28;;;;;;;9.35;89.05;99117.81;4994328;28;20033;-72
2021/11/14 16:24:51;;;;;;;1.73;1.60;;;;;;;9.33;89.26;99114.38;4993967;28;20085;-77
2021/11/14 16:27:17;;;;;;;2.95;2.03;;;;;;;9.37;89.58;99121.22;4993794;28;20023;-76
2021/11/14 16:29:44;;;;;;;2.35;2.22;;;;;;;9.30;89.73;99119.56;4986354;28;20031;-77
2021/11/14 16:32:09;;;;;;;5.45;3.00;;;;;;;9.35;89.69;99117.81;4993857;28;20081;-76
2021/11/14 16:34:35;;;;;;;3.78;2.28;;;;;;;9.28;89.69;99126.47;4993657;28;20030;-76
2021/11/14 16:37:00;;;;;;;3.40;3.15;;;;;;;9.32;89.82;99123.00;4993858;28;20075;-76
2021/11/14 16:39:26;;;;;;;2.78;1.85;;;;;;;9.27;89.73;99130.78;4993450;28;20101;-77
2021/11/14 16:41:52;;;;;;;3.53;1.30;;;;;;;9.24;89.83;99129.97;4993894;28;20018;-72
2021/11/14 16:44:18;;;;;;;3.10;1.85;;;;;;;9.23;89.52;99131.69;4993453;28;20579;-72
2021/11/14 16:46:44;;;;;;;1.73;1.67;;;;;;;9.26;89.55;99135.97;4993681;28;20022;-72
2021/11/14 16:49:10;;;;;;;6.90;2.13;;;;;;;9.25;89.31;99142.00;4993181;28;20467;-76
2021/11/14 16:51:36;;;;;;;1.13;1.13;;;;;;;9.28;89.81;99152.31;4993480;28;20030;-82
2021/11/14 16:54:03;;;;;;;4.53;2.33;;;;;;;9.25;89.40;99150.63;4992455;28;20498;-82
2021/11/14 16:56:29;;;;;;;1.27;1.23;;;;;;;9.21;90.23;99154.09;4993525;28;20036;-83
2021/11/14 16:58:54;;;;;;;2.80;2.28;;;;;;;9.21;90.12;99155.81;4990954;28;20038;-82
2021/11/14 17:01:20;;;;;;;2.92;2.25;;;;;;;9.21;90.13;99161.00;4987791;28;20058;-82
2021/11/14 17:03:45;;;;;;;3.50;2.75;;;;;;;9.16;91.16;99162.75;4993186;28;20030;-81
2021/11/14 17:06:10;;;;;;;7.78;3.00;;;;;;;9.14;90.42;99159.34;4993224;28;20023;-82
2021/11/14 17:08:36;;;;;;;2.05;1.75;;;;;;;9.19;90.15;99173.09;4993296;28;20446;-78
2021/11/14 17:11:03;;;;;;;2.90;1.75;;;;;;;9.26;88.57;99172.16;4992997;28;20321;-74
2021/11/14 17:13:30;;;;;;;1.35;1.25;;;;;;;9.31;88.42;99178.16;4993207;28;20028;-72
2021/11/14 17:15:55;;;;;;;3.78;2.03;;;;;;;9.31;88.16;99178.16;4992917;28;20042;-78
2021/11/14 17:18:21;;;;;;;2.25;1.63;;;;;;;9.29;87.93;99185.09;4992958;28;20030;-72
2021/11/14 17:20:48;;;;;;;1.52;1.10;;;;;;;9.30;87.50;99178.19;4992758;28;20045;-72
2021/11/14 17:23:14;;;;;;;1.58;1.48;;;;;;;9.41;86.34;99178.97;4993335;28;20022;-73
2021/11/14 17:25:40;;;;;;;2.25;1.10;;;;;;;9.34;86.82;99172.97;4993088;28;20037;-72
2021/11/14 17:28:05;;;;;;;1.67;1.58;;;;;;;9.35;86.58;99179.88;4992536;28;20014;-73
2021/11/14 17:30:31;;;;;;;1.42;0.95;;;;;;;9.36;86.20;99176.41;4985809;28;20482;-72
2021/11/14 17:32:57;;;;;;;1.30;1.20;;;;;;;9.37;86.71;99183.28;4991457;28;20053;-72
2021/11/14 17:35:22;;;;;;;1.15;0.82;;;;;;;9.33;87.08;99181.63;4992766;28;20030;-73
2021/11/14 17:37:48;;;;;;;1.63;1.48;;;;;;;9.35;87.09;99190.22;4992661;28;20030;-72
2021/11/14 17:40:14;;;;;;;1.40;1.30;;;;;;;9.32;87.19;99184.19;4992902;28;20022;-72
2021/11/14 17:42:42;;;;;;;2.50;1.20;;;;;;;9.33;87.23;99191.97;4992612;28;20029;-73
2021/11/14 17:45:08;;;;;;;1.55;1.45;;;;;;;9.32;87.28;99195.38;4992739;28;20034;-73
2021/11/14 17:47:34;;;;;;;1.88;1.77;;;;;;;9.33;86.59;99186.78;4992537;28;20570;-73
2021/11/14 17:49:59;;;;;;;1.52;1.42;;;;;;;9.32;87.40;99194.53;4992567;28;20038;-72
2021/11/14 17:52:25;;;;;;;1.42;1.17;;;;;;;9.31;87.65;99191.09;4992585;28;20105;-73
2021/11/14 17:54:51;;;;;;;2.05;1.95;;;;;;;9.27;87.94;99195.41;4992589;28;20018;-72
2021/11/14 17:57:16;;;;;;;4.28;2.90;;;;;;;9.28;88.32;99206.63;4992134;28;20026;-73
2021/11/14 17:59:42;;;;;;;1.73;1.52;;;;;;;9.26;88.59;99200.59;4984109;28;20126;-72
2021/11/14 18:02:07;;;;;;;4.18;1.98;;;;;;;9.31;88.87;99203.16;4992310;28;20434;-72
2021/11/14 18:04:33;;;;;;;2.90;2.03;;;;;;;9.32;88.64;99199.72;4992613;28;20018;-73
2021/11/14 18:06:59;;;;;;;1.85;1.40;;;;;;;9.27;88.86;99207.50;4994813;28;20077;-72
2021/11/14 18:09:24;;;;;;;2.58;2.05;;;;;;;9.24;88.68;99205.78;4996508;28;20022;-73
2021/11/14 18:11:51;;;;;;;4.07;2.58;;;;;;;9.25;88.92;99209.25;4996522;28;20030;-72
2021/11/14 18:14:17;;;;;;;2.83;1.92;;;;;;;9.22;90.02;99219.59;4996251;28;20046;-73
2021/11/14 18:16:42;;;;;;;1.58;1.48;;;;;;;9.19;88.62;99214.44;4996443;28;20073;-72
2021/11/14 18:19:07;;;;;;;3.38;2.00;;;;;;;9.16;89.34;99214.47;4996138;28;20018;-73
2021/11/14 18:21:33;;;;;;;1.52;1.23;;;;;;;9.21;87.91;99217.88;4996305;28;20026;-73
2021/11/14 18:23:59;;;;;;;2.20;2.00;;;;;;;9.23;88.34;99216.13;4996243;28;20027;-72
2021/11/14 18:26:26;;;;;;;5.30;1.85;;;;;;;9.31;88.61;99208.34;4996211;28;20022;-72
2021/11/14 18:28:51;;;;;;;1.98;1.40;;;;;;;9.17;88.38;99216.16;4994313;28;20029;-72
2021/11/14 18:31:18;;;;;;;2.13;1.92;;;;;;;9.12;88.71;99220.50;4990067;28;20034;-72
2021/11/14 18:33:44;;;;;;;1.77;1.67;;;;;;;9.17;87.60;99216.16;4995951;28;20088;-72
2021/11/14 18:36:10;;;;;;;1.58;1.48;;;;;;;9.16;87.27;99215.31;4996085;28;20475;-72
2021/11/14 18:38:35;;;;;;;1.58;1.42;;;;;;;9.10;88.29;99219.66;4995901;28;20041;-72
2021/11/14 18:41:01;;;;;;;1.20;1.17;;;;;;;9.12;87.78;99223.94;4994646;28;20019;-72
2021/11/14 18:43:26;;;;;;;4.03;2.25;;;;;;;9.12;87.63;99223.09;4995940;28;20459;-72
2021/11/14 18:45:53;;;;;;;3.63;1.63;;;;;;;9.07;87.43;99222.25;4995837;28;20030;-72